createdAt,value
2022-10-22T05:54:35.674Z,5.43
2022-10-22T06:30:31.715Z,2.92
2022-10-22T06:32:58.151Z,1.80
2022-10-22T06:35:24.525Z,1.25
2022-10-22T06:38:08.088Z,2.92
2022-10-22T06:41:25.768Z,2.63
2022-10-22T06:43:57.169Z,2.85
2022-10-22T06:46:27.211Z,4.22
2022-10-22T06:48:58.438Z,1.05
2022-10-22T06:51:25.556Z,1.88
2022-10-22T06:53:55.416Z,1.58
2022-10-22T06:56:24.523Z,2.75
2022-10-22T06:58:52.401Z,2.40
2022-10-22T07:01:48.695Z,3.65
2022-10-22T07:04:21.236Z,2.55
2022-10-22T07:06:56.763Z,1.92
2022-10-22T07:09:23.236Z,2.55
2022-10-22T07:11:55.872Z,1.60
2022-10-22T07:14:22.328Z,9.43
2022-10-22T07:16:50.427Z,1.65
2022-10-22T07:19:16.876Z,3.80
2022-10-22T07:21:43.323Z,2.47
2022-10-22T07:24:09.763Z,1.58
2022-10-22T07:26:36.803Z,1.50
2022-10-22T07:29:04.339Z,3.45
2022-10-22T07:31:40.695Z,0.90
2022-10-22T07:34:07.632Z,1.35
2022-10-22T07:36:34.106Z,3.83
2022-10-22T07:39:00.684Z,1.10
2022-10-22T07:41:28.698Z,2.10
2022-10-22T07:43:55.735Z,2.83
2022-10-22T07:46:24.731Z,2.30
2022-10-22T07:48:51.191Z,2.03
2022-10-22T07:51:17.722Z,4.88
2022-10-22T07:53:44.182Z,5.38
2022-10-22T07:56:35.870Z,2.28
2022-10-22T08:01:33.638Z,5.07
2022-10-22T08:04:00.160Z,3.05
2022-10-22T08:06:36.509Z,2.28
2022-10-22T08:09:04.622Z,5.82
2022-10-22T08:11:33.368Z,1.38
2022-10-22T08:13:59.915Z,4.70
2022-10-22T08:16:26.448Z,1.95
2022-10-22T08:18:53.196Z,3.17
2022-10-22T08:21:19.611Z,3.60
2022-10-22T08:23:45.985Z,4.00
2022-10-22T08:26:12.392Z,4.05
2022-10-22T08:28:38.900Z,1.83
2022-10-22T08:31:07.400Z,2.78
2022-10-22T08:33:42.391Z,2.33
2022-10-22T08:36:09.308Z,2.25
2022-10-22T08:38:36.224Z,1.98
2022-10-22T08:41:14.560Z,3.35
2022-10-22T08:44:18.176Z,4.33
2022-10-22T08:47:20.067Z,2.97
2022-10-22T08:49:48.891Z,0.93
2022-10-22T08:52:17.436Z,2.20
2022-10-22T08:54:53.665Z,2.47
2022-10-22T08:57:55.277Z,0.90
2022-10-22T09:00:25.842Z,2.13
2022-10-22T09:03:04.380Z,3.15
2022-10-22T09:05:46.934Z,2.75
2022-10-22T09:08:15.513Z,2.38
2022-10-22T09:10:46.783Z,2.17
2022-10-22T09:13:38.614Z,1.17
2022-10-22T09:19:20.041Z,1.52
2022-10-22T09:21:53.352Z,1.48
2022-10-22T09:24:53.454Z,4.85
2022-10-22T09:27:29.002Z,2.30
2022-10-22T09:30:07.581Z,1.92
2022-10-22T09:32:34.117Z,2.70
2022-10-22T09:35:01.150Z,1.85
2022-10-22T09:38:07.814Z,3.28
2022-10-22T09:40:43.836Z,4.35
2022-10-22T09:43:18.890Z,2.05
2022-10-22T09:46:17.564Z,1.30
2022-10-22T09:49:02.197Z,2.63
2022-10-22T09:52:25.145Z,1.77
2022-10-22T09:55:28.159Z,2.13
2022-10-22T09:57:56.068Z,3.28
2022-10-22T10:00:24.922Z,5.65
2022-10-22T10:02:56.350Z,3.17
2022-10-22T10:05:44.055Z,4.25
2022-10-22T10:08:25.462Z,2.67
2022-10-22T10:11:03.118Z,2.55
2022-10-22T10:13:38.583Z,6.20
2022-10-22T10:16:27.483Z,6.38
2022-10-22T10:19:07.408Z,4.40
2022-10-22T10:21:38.847Z,6.35
2022-10-22T10:24:17.720Z,4.03
2022-10-22T10:26:55.386Z,4.30
2022-10-22T10:29:54.656Z,2.17
2022-10-22T10:33:40.620Z,4.50
2022-10-22T10:36:31.781Z,4.32
2022-10-22T10:39:10.145Z,5.10
2022-10-22T10:42:01.305Z,5.40
2022-10-22T10:44:59.240Z,3.63
2022-10-22T10:48:33.912Z,3.97
2022-10-22T10:51:23.460Z,3.28
2022-10-22T10:54:16.856Z,5.53
2022-10-22T10:57:14.218Z,1.90
2022-10-22T11:00:15.913Z,5.53
2022-10-22T11:03:04.658Z,2.17
2022-10-22T11:06:08.023Z,3.47
2022-10-22T11:08:43.100Z,4.05
2022-10-22T11:11:19.809Z,2.90
2022-10-22T11:14:14.902Z,4.97
2022-10-22T11:17:14.445Z,3.42
2022-10-22T11:19:51.552Z,6.45
2022-10-22T11:25:42.716Z,5.10
2022-10-22T11:28:28.067Z,4.88
2022-10-22T11:31:30.072Z,2.53
2022-10-22T11:34:32.723Z,3.90
2022-10-22T11:37:10.004Z,4.93
2022-10-22T11:45:50.221Z,4.40
2022-10-22T11:48:36.777Z,4.68
2022-10-22T11:51:04.194Z,4.57
2022-10-22T11:53:31.760Z,3.13
2022-10-22T11:56:22.687Z,6.38
2022-10-22T11:58:52.307Z,3.53
2022-10-22T12:02:01.211Z,2.97
2022-10-22T12:04:42.007Z,4.07
2022-10-22T12:07:41.193Z,2.35
2022-10-22T12:10:53.068Z,4.13
2022-10-22T12:13:32.779Z,5.28
2022-10-22T12:16:32.215Z,3.72
2022-10-22T12:19:41.849Z,3.80
2022-10-22T12:22:52.057Z,5.43
2022-10-22T12:25:26.500Z,4.13
2022-10-22T12:28:02.482Z,7.57
2022-10-22T12:30:55.175Z,5.00
2022-10-22T12:33:22.793Z,3.85
2022-10-22T12:35:52.844Z,4.47
2022-10-22T12:38:21.982Z,5.07
2022-10-22T12:43:27.709Z,3.42
2022-10-22T12:46:16.341Z,5.13
2022-10-22T12:48:44.316Z,4.30
2022-10-22T12:51:16.979Z,3.15
2022-10-22T12:53:51.159Z,4.13
2022-10-22T12:56:26.797Z,3.05
2022-10-22T13:02:37.889Z,2.50
2022-10-22T13:05:19.724Z,3.58
2022-10-22T13:07:52.108Z,3.08
2022-10-22T13:10:24.119Z,5.10
2022-10-22T13:12:55.091Z,5.78
2022-10-22T13:15:35.134Z,4.07
2022-10-22T13:18:40.141Z,2.30
2022-10-22T13:21:35.283Z,4.72
2022-10-22T13:24:48.085Z,4.07
2022-10-22T13:27:23.264Z,3.97
2022-10-22T13:30:00.859Z,5.57
2022-10-22T13:32:30.612Z,4.43
2022-10-22T13:34:58.755Z,3.30
2022-10-22T13:37:26.585Z,2.15
2022-10-22T13:39:53.388Z,5.43
2022-10-22T13:42:19.890Z,4.35
2022-10-22T13:44:46.463Z,5.38
2022-10-22T13:47:27.236Z,2.83
2022-10-22T13:52:36.150Z,5.43
2022-10-22T13:55:13.275Z,2.25
2022-10-22T13:57:39.683Z,5.10
2022-10-22T14:00:06.860Z,3.03
2022-10-22T14:02:39.242Z,5.43
2022-10-22T14:05:09.315Z,6.18
2022-10-22T14:07:36.639Z,3.50
2022-10-22T14:10:06.672Z,3.47
2022-10-22T14:12:33.315Z,5.28
2022-10-22T14:14:59.690Z,6.65
2022-10-22T14:17:26.507Z,3.53
2022-10-22T14:19:52.955Z,3.35
2022-10-22T14:22:19.992Z,8.15
2022-10-22T14:24:47.021Z,2.20
2022-10-22T14:27:14.731Z,3.28
2022-10-22T14:29:41.554Z,2.35
2022-10-22T14:32:20.109Z,6.63
2022-10-22T14:34:46.813Z,3.83
2022-10-22T14:37:19.471Z,4.22
2022-10-22T14:39:53.147Z,6.28
2022-10-22T14:42:20.063Z,10.15
2022-10-22T14:44:46.844Z,4.43
2022-10-22T14:47:13.931Z,6.40
2022-10-22T14:49:40.328Z,8.90
2022-10-22T14:52:09.500Z,6.35
2022-10-22T14:54:38.269Z,4.53
2022-10-22T14:57:05.524Z,6.88
2022-10-22T14:59:31.969Z,4.72
2022-10-22T15:01:58.417Z,2.42
2022-10-22T15:04:26.916Z,5.55
2022-10-22T15:06:56.244Z,5.45
2022-10-22T15:09:23.974Z,5.43
2022-10-22T15:11:50.949Z,7.68
2022-10-22T15:14:17.344Z,6.05
2022-10-22T15:16:43.734Z,4.68
2022-10-22T15:19:11.096Z,5.88
2022-10-22T15:21:37.539Z,3.55
2022-10-22T15:24:04.660Z,5.30
2022-10-22T15:26:31.099Z,4.72
2022-10-22T15:28:57.623Z,5.05
2022-10-22T15:31:49.060Z,7.97
2022-10-22T15:34:24.670Z,3.85
2022-10-22T15:36:51.492Z,4.10
2022-10-22T15:39:17.904Z,4.55
2022-10-22T15:41:46.897Z,6.13
2022-10-22T15:44:16.267Z,6.55
2022-10-22T15:46:44.239Z,6.80
2022-10-22T15:49:10.937Z,4.22
2022-10-22T15:51:37.401Z,4.82
2022-10-22T15:54:09.266Z,3.13
2022-10-22T15:56:37.016Z,5.75
2022-10-22T15:59:04.222Z,7.50
2022-10-22T16:01:32.785Z,8.05
2022-10-22T16:04:01.241Z,9.25
2022-10-22T16:06:28.460Z,7.95
2022-10-22T16:08:57.555Z,7.75
2022-10-22T16:11:24.377Z,7.03
2022-10-22T16:13:56.336Z,6.20
2022-10-22T16:16:33.544Z,11.35
2022-10-22T16:19:00.269Z,3.45
2022-10-22T16:21:27.641Z,6.63
2022-10-22T16:23:54.409Z,5.70
2022-10-22T16:26:22.140Z,5.07
2022-10-22T16:28:48.867Z,4.78
2022-10-22T16:31:18.167Z,8.43
2022-10-22T16:36:19.425Z,14.02
2022-10-22T16:38:46.673Z,9.25
2022-10-22T16:41:18.559Z,7.60
2022-10-22T16:43:48.507Z,7.95
2022-10-22T17:02:37.467Z,6.40
2022-10-22T17:05:50.539Z,7.63
2022-10-22T17:09:03.814Z,10.98
2022-10-22T17:15:37.897Z,4.97
2022-10-22T17:18:09.539Z,5.03
2022-10-22T17:20:52.965Z,5.88
2022-10-22T17:27:59.731Z,8.75
2022-10-22T17:31:09.619Z,6.70
2022-10-22T17:34:23.871Z,5.25
2022-10-22T17:41:31.159Z,5.80
2022-10-22T17:44:13.648Z,7.18
2022-10-22T17:46:56.857Z,6.30
2022-10-22T17:49:29.942Z,5.88
2022-10-22T17:56:46.962Z,5.40
2022-10-22T17:59:53.740Z,9.02
2022-10-22T18:05:24.722Z,6.40
2022-10-22T18:11:10.013Z,6.20
2022-10-22T18:13:41.415Z,9.00
2022-10-22T18:16:16.765Z,6.18
2022-10-22T18:18:50.933Z,8.63
2022-10-22T18:28:44.737Z,3.53
2022-10-22T18:32:23.427Z,7.53
2022-10-22T18:35:21.119Z,7.40
2022-10-22T18:38:30.793Z,4.75
2022-10-22T18:51:24.186Z,7.45
2022-10-22T18:54:43.677Z,4.68
2022-10-22T18:58:19.558Z,9.50
2022-10-22T19:00:48.035Z,9.65
2022-10-22T19:03:26.383Z,7.80
2022-10-22T19:06:25.220Z,7.07
2022-10-22T19:09:31.715Z,11.90
2022-10-22T19:12:02.259Z,8.40
2022-10-22T19:15:02.141Z,4.78
2022-10-22T19:17:59.679Z,6.78
2022-10-22T19:20:31.990Z,6.45
2022-10-22T19:23:51.719Z,8.60
2022-10-22T19:27:28.088Z,4.60
2022-10-22T19:30:22.179Z,4.53
2022-10-22T19:33:18.941Z,5.57
2022-10-22T19:35:52.391Z,10.35
2022-10-22T19:46:59.947Z,8.15
2022-10-22T19:50:16.891Z,5.90
2022-10-22T19:53:01.514Z,7.63
2022-10-22T19:55:30.056Z,5.97
2022-10-22T19:58:02.739Z,7.22
2022-10-22T20:04:06.503Z,8.18
2022-10-22T20:07:49.999Z,10.43
2022-10-22T20:10:21.695Z,7.93
2022-10-22T20:12:52.735Z,10.93
2022-10-22T20:15:33.242Z,8.95
2022-10-22T20:18:45.215Z,8.55
2022-10-22T20:21:39.792Z,10.48
2022-10-22T20:24:26.883Z,9.48
2022-10-22T20:27:07.428Z,8.20
2022-10-22T20:29:42.684Z,5.13
2022-10-22T20:32:28.542Z,5.10
2022-10-22T20:35:22.157Z,11.00
2022-10-22T20:48:26.637Z,11.52
2022-10-22T20:51:31.722Z,7.38
2022-10-22T20:54:20.233Z,9.80
2022-10-22T21:12:13.640Z,7.80
2022-10-22T21:14:56.206Z,6.82
2022-10-22T21:21:33.256Z,7.03
2022-10-22T21:28:09.830Z,9.00
2022-10-22T21:30:56.468Z,8.60
2022-10-22T21:40:23.922Z,5.47
2022-10-22T21:43:52.560Z,9.73
2022-10-22T21:46:56.711Z,8.20
2022-10-22T21:49:41.876Z,10.00
2022-10-22T22:04:01.027Z,9.27
2022-10-22T22:06:33.123Z,11.05
2022-10-22T22:09:28.359Z,13.90
2022-10-22T22:12:40.783Z,12.27
2022-10-22T22:15:25.746Z,8.10
2022-10-22T22:18:04.410Z,11.20
2022-10-22T22:20:33.077Z,6.53
2022-10-22T22:28:12.687Z,9.35
2022-10-22T22:30:44.447Z,8.55
2022-10-22T22:34:06.169Z,13.85
2022-10-22T22:44:37.918Z,7.97
2022-10-22T22:47:05.674Z,7.88
2022-10-22T22:49:37.340Z,13.38
2022-10-22T22:55:01.661Z,8.40
2022-10-22T22:57:38.535Z,6.78
2022-10-22T23:00:21.620Z,9.90
2022-10-22T23:03:21.490Z,6.68
2022-10-22T23:05:59.521Z,5.22
2022-10-22T23:16:33.355Z,5.05
2022-10-22T23:19:09.922Z,10.48
2022-10-22T23:21:39.946Z,10.13
2022-10-22T23:24:37.881Z,8.25
2022-10-22T23:31:25.674Z,8.85
2022-10-22T23:34:34.579Z,8.05
2022-10-22T23:37:37.431Z,8.17
2022-10-22T23:40:09.573Z,7.45
2022-10-22T23:43:07.526Z,6.90
2022-10-22T23:50:03.304Z,9.48
2022-10-22T23:52:56.296Z,5.72
2022-10-22T23:56:22.788Z,6.85
2022-10-22T23:59:28.363Z,6.37
